createdAt,value
2018-07-30T00:00:28.339Z,24.30
2018-07-30T00:02:55.767Z,24.30
2018-07-30T00:05:23.140Z,24.30
2018-07-30T00:07:50.432Z,24.30
2018-07-30T00:10:17.839Z,24.30
2018-07-30T00:12:45.271Z,24.30
2018-07-30T00:15:12.455Z,24.30
2018-07-30T00:17:39.604Z,24.30
2018-07-30T00:20:06.801Z,24.30
2018-07-30T00:22:33.964Z,24.20
2018-07-30T00:25:01.127Z,24.20
2018-07-30T00:27:28.331Z,24.20
2018-07-30T00:29:55.568Z,24.00
2018-07-30T00:32:22.730Z,24.20
2018-07-30T00:34:49.898Z,24.20
2018-07-30T00:37:17.140Z,24.20
2018-07-30T00:39:44.304Z,24.30
2018-07-30T00:42:11.625Z,24.30
2018-07-30T00:44:38.879Z,24.30
2018-07-30T00:47:06.051Z,24.40
2018-07-30T00:49:33.231Z,24.40
2018-07-30T00:52:00.568Z,24.40
2018-07-30T00:56:55.003Z,24.30
2018-07-30T00:59:22.091Z,24.30
2018-07-30T01:01:49.367Z,24.30
2018-07-30T01:04:16.606Z,24.30
2018-07-30T01:06:43.803Z,24.30
2018-07-30T01:09:11.201Z,24.20
2018-07-30T01:11:38.455Z,24.00
2018-07-30T01:14:05.667Z,24.10
2018-07-30T01:16:32.850Z,24.10
2018-07-30T01:19:00.032Z,24.00
2018-07-30T01:21:27.236Z,24.10
2018-07-30T01:23:54.480Z,24.10
2018-07-30T01:26:26.540Z,24.20
2018-07-30T01:28:53.820Z,24.20
2018-07-30T01:31:20.983Z,24.20
2018-07-30T01:33:48.147Z,24.30
2018-07-30T01:36:15.299Z,24.30
2018-07-30T01:38:42.456Z,24.30
2018-07-30T01:41:09.624Z,24.20
2018-07-30T01:43:36.776Z,24.20
2018-07-30T01:46:04.355Z,24.20
2018-07-30T01:48:31.539Z,24.10
2018-07-30T01:50:58.824Z,23.90
2018-07-30T01:53:26.303Z,23.90
2018-07-30T01:55:53.559Z,23.80
2018-07-30T01:58:20.808Z,23.80
2018-07-30T02:00:48.031Z,23.60
2018-07-30T02:03:15.203Z,23.50
2018-07-30T02:05:42.436Z,23.60
2018-07-30T02:08:09.676Z,23.50
2018-07-30T02:10:36.856Z,23.50
2018-07-30T02:13:04.142Z,23.50
2018-07-30T02:15:31.364Z,23.60
2018-07-30T02:17:58.540Z,23.50
2018-07-30T02:20:25.752Z,23.50
2018-07-30T02:22:52.955Z,23.50
2018-07-30T02:25:20.182Z,23.40
2018-07-30T02:27:47.360Z,23.30
2018-07-30T02:30:14.620Z,23.30
2018-07-30T02:32:41.811Z,23.20
2018-07-30T02:35:09.285Z,23.20
2018-07-30T02:37:36.520Z,23.10
2018-07-30T02:40:04.555Z,23.10
2018-07-30T02:42:31.755Z,23.00
2018-07-30T02:44:58.937Z,22.90
2018-07-30T02:47:26.127Z,22.90
2018-07-30T02:49:53.379Z,22.90
2018-07-30T02:52:20.564Z,22.90
2018-07-30T02:54:47.739Z,22.80
2018-07-30T02:57:14.919Z,22.70
2018-07-30T02:59:42.097Z,22.80
2018-07-30T03:02:09.259Z,22.50
2018-07-30T03:04:36.440Z,22.50
2018-07-30T03:07:03.636Z,22.50
2018-07-30T03:09:30.937Z,22.40
2018-07-30T03:11:58.054Z,22.50
2018-07-30T03:14:25.219Z,22.70
2018-07-30T03:16:52.412Z,22.70
2018-07-30T03:19:19.735Z,22.60
2018-07-30T03:24:14.128Z,22.40
2018-07-30T03:26:41.309Z,22.50
2018-07-30T03:29:08.501Z,22.50
2018-07-30T03:31:35.695Z,22.50
2018-07-30T03:34:02.947Z,22.60
2018-07-30T03:38:57.472Z,22.80
2018-07-30T03:41:24.643Z,22.80
2018-07-30T03:43:51.812Z,22.80
2018-07-30T03:46:19.003Z,22.80
2018-07-30T03:48:46.204Z,22.60
2018-07-30T03:51:13.403Z,22.50
2018-07-30T03:53:40.568Z,22.60
2018-07-30T03:56:07.733Z,22.70
2018-07-30T03:58:34.932Z,22.70
2018-07-30T04:01:02.226Z,22.80
2018-07-30T04:03:29.409Z,22.80
2018-07-30T04:05:56.584Z,22.60
2018-07-30T04:08:23.853Z,22.60
2018-07-30T04:10:51.086Z,22.70
2018-07-30T04:13:18.251Z,22.80
2018-07-30T04:15:45.435Z,22.80
2018-07-30T04:18:12.712Z,22.80
2018-07-30T04:20:39.939Z,22.80
2018-07-30T04:25:34.340Z,22.70
2018-07-30T04:28:01.500Z,22.70
2018-07-30T04:30:28.740Z,22.60
2018-07-30T04:32:56.017Z,22.50
2018-07-30T04:35:23.318Z,22.60
2018-07-30T04:37:54.089Z,22.50
2018-07-30T04:40:21.279Z,22.40
2018-07-30T04:42:48.499Z,22.50
2018-07-30T04:45:15.679Z,22.50
2018-07-30T04:47:42.859Z,22.60
2018-07-30T04:50:10.038Z,22.70
2018-07-30T04:52:37.180Z,22.70
2018-07-30T04:55:04.393Z,22.70
2018-07-30T04:57:31.641Z,22.70
2018-07-30T04:59:58.812Z,22.70
2018-07-30T05:02:25.979Z,22.70
2018-07-30T05:04:53.265Z,22.60
2018-07-30T05:07:20.416Z,22.50
2018-07-30T05:09:47.592Z,22.50
2018-07-30T05:12:14.922Z,22.50
2018-07-30T05:14:42.307Z,22.50
2018-07-30T05:17:09.467Z,22.50
2018-07-30T05:19:36.954Z,22.50
2018-07-30T05:22:04.128Z,22.60
2018-07-30T05:24:31.314Z,22.70
2018-07-30T05:26:58.480Z,22.80
2018-07-30T05:29:25.719Z,23.10
2018-07-30T05:31:52.917Z,23.50
2018-07-30T05:34:20.186Z,23.90
2018-07-30T05:36:47.447Z,24.40
2018-07-30T05:39:14.635Z,25.10
2018-07-30T05:41:41.813Z,25.80
2018-07-30T05:44:09.098Z,26.60
2018-07-30T05:46:36.311Z,27.20
2018-07-30T05:49:03.784Z,27.80
2018-07-30T05:51:31.035Z,28.20
2018-07-30T05:53:58.223Z,28.50
2018-07-30T05:56:25.455Z,28.70
2018-07-30T05:58:52.652Z,28.60
2018-07-30T06:01:19.837Z,28.50
2018-07-30T06:03:47.043Z,28.20
2018-07-30T06:06:14.235Z,27.90
2018-07-30T06:08:41.556Z,27.60
2018-07-30T06:11:08.720Z,27.40
2018-07-30T06:13:36.023Z,27.30
2018-07-30T06:16:03.196Z,27.20
2018-07-30T06:18:30.360Z,27.10
2018-07-30T06:20:57.538Z,27.10
2018-07-30T06:23:24.936Z,27.10
2018-07-30T06:25:52.299Z,27.10
2018-07-30T06:28:19.759Z,27.20
2018-07-30T06:30:47.117Z,27.10
2018-07-30T06:33:14.500Z,27.10
2018-07-30T06:35:41.915Z,27.10
2018-07-30T06:38:09.260Z,27.20
2018-07-30T06:40:36.787Z,27.20
2018-07-30T06:43:04.168Z,27.20
2018-07-30T06:45:31.556Z,27.20
2018-07-30T06:47:58.972Z,27.30
2018-07-30T06:50:26.292Z,27.30
2018-07-30T06:52:53.639Z,27.40
2018-07-30T06:55:21.080Z,27.40
2018-07-30T06:57:48.432Z,27.50
2018-07-30T07:00:15.852Z,27.50
2018-07-30T07:02:43.200Z,27.50
2018-07-30T07:05:11.012Z,27.50
2018-07-30T07:07:38.360Z,27.60
2018-07-30T07:10:07.223Z,27.60
2018-07-30T07:12:34.636Z,27.60
2018-07-30T07:15:02.005Z,27.60
2018-07-30T07:17:29.380Z,27.60
2018-07-30T07:19:56.775Z,27.60
2018-07-30T07:22:24.136Z,27.80
2018-07-30T07:24:51.960Z,28.00
2018-07-30T07:27:19.408Z,28.10
2018-07-30T07:29:46.815Z,28.20
2018-07-30T07:32:14.175Z,28.20
2018-07-30T07:34:41.520Z,28.00
2018-07-30T07:37:09.429Z,27.90
2018-07-30T07:39:36.857Z,27.90
2018-07-30T07:42:04.253Z,28.00
2018-07-30T07:44:31.631Z,28.00
2018-07-30T07:46:59.011Z,28.10
2018-07-30T07:49:26.349Z,28.20
2018-07-30T07:51:53.827Z,28.30
2018-07-30T07:54:21.161Z,28.30
2018-07-30T07:56:48.513Z,28.30
2018-07-30T07:59:15.876Z,28.40
2018-07-30T08:01:43.250Z,28.40
2018-07-30T08:04:10.605Z,28.40
2018-07-30T08:06:37.991Z,28.40
2018-07-30T08:09:07.810Z,28.50
2018-07-30T08:11:35.181Z,28.60
2018-07-30T08:14:02.549Z,28.80
2018-07-30T08:16:29.902Z,28.80
2018-07-30T08:18:57.283Z,28.90
2018-07-30T08:21:24.665Z,28.90
2018-07-30T08:23:52.030Z,29.00
2018-07-30T08:26:19.396Z,29.00
2018-07-30T08:28:46.756Z,29.00
2018-07-30T08:31:14.141Z,29.00
2018-07-30T08:33:41.513Z,29.00
2018-07-30T08:36:08.959Z,29.20
2018-07-30T08:38:36.456Z,29.30
2018-07-30T08:41:03.874Z,29.30
2018-07-30T08:43:31.196Z,29.30
2018-07-30T08:45:58.576Z,29.40
2018-07-30T08:48:25.944Z,29.40
2018-07-30T08:50:53.295Z,29.60
2018-07-30T08:53:20.743Z,29.40
2018-07-30T08:55:48.178Z,29.50
2018-07-30T08:58:15.556Z,29.80
2018-07-30T09:00:42.900Z,29.80
2018-07-30T09:03:10.280Z,29.80
2018-07-30T09:05:37.720Z,29.80
2018-07-30T09:08:05.111Z,29.70
2018-07-30T09:10:32.457Z,29.80
2018-07-30T09:13:00.148Z,30.00
2018-07-30T09:15:27.483Z,30.00
2018-07-30T09:17:54.840Z,29.90
2018-07-30T09:20:22.275Z,29.90
2018-07-30T09:25:17.371Z,29.80
2018-07-30T09:27:44.753Z,30.00
2018-07-30T09:30:12.152Z,30.10
2018-07-30T09:32:39.579Z,30.30
2018-07-30T09:35:07.080Z,30.40
2018-07-30T09:37:34.468Z,30.40
2018-07-30T09:40:01.956Z,30.20
2018-07-30T09:42:29.339Z,30.30
2018-07-30T09:44:56.820Z,30.20
2018-07-30T09:47:24.143Z,30.50
2018-07-30T09:52:19.015Z,31.40
2018-07-30T09:54:46.380Z,31.50
2018-07-30T09:57:13.744Z,32.00
2018-07-30T09:59:41.107Z,32.20
2018-07-30T10:02:08.484Z,32.30
2018-07-30T10:04:35.855Z,32.00
2018-07-30T10:07:03.227Z,32.40
2018-07-30T10:09:30.600Z,32.60
2018-07-30T10:11:58.020Z,33.00
2018-07-30T10:14:25.839Z,32.70
2018-07-30T10:16:53.804Z,32.80
2018-07-30T10:19:21.170Z,32.80
2018-07-30T10:21:48.593Z,32.80
2018-07-30T10:24:15.964Z,33.00
2018-07-30T10:26:43.369Z,33.20
2018-07-30T10:31:38.108Z,33.00
2018-07-30T10:34:05.486Z,33.10
2018-07-30T10:36:33.011Z,33.10
2018-07-30T10:39:00.435Z,33.40
2018-07-30T10:41:27.769Z,33.90
2018-07-30T10:46:22.608Z,34.10
2018-07-30T10:48:49.943Z,34.20
2018-07-30T10:51:17.285Z,34.20
2018-07-30T10:53:44.609Z,34.20
2018-07-30T10:56:11.974Z,34.30
2018-07-30T10:58:39.334Z,34.40
2018-07-30T11:01:06.755Z,34.10
2018-07-30T11:03:34.119Z,34.40
2018-07-30T11:06:01.556Z,34.90
2018-07-30T11:08:28.884Z,35.10
2018-07-30T11:10:56.247Z,35.20
2018-07-30T11:13:23.679Z,35.30
2018-07-30T11:15:51.071Z,35.60
2018-07-30T11:18:18.432Z,35.40
2018-07-30T11:23:13.191Z,35.70
2018-07-30T11:25:40.580Z,36.00
2018-07-30T11:28:07.986Z,36.00
2018-07-30T11:30:35.323Z,35.70
2018-07-30T11:35:30.140Z,35.60
2018-07-30T11:37:57.478Z,35.30
2018-07-30T11:40:24.827Z,35.30
2018-07-30T11:45:19.623Z,35.50
2018-07-30T11:47:46.989Z,35.40
2018-07-30T11:50:14.433Z,35.50
2018-07-30T11:52:41.790Z,35.50
2018-07-30T11:55:09.127Z,35.30
2018-07-30T11:57:36.575Z,35.30
2018-07-30T12:00:04.091Z,35.30
2018-07-30T12:04:58.939Z,36.00
2018-07-30T12:07:26.287Z,36.00
2018-07-30T12:09:53.643Z,36.10
2018-07-30T12:12:21.012Z,36.00
2018-07-30T12:14:48.360Z,36.00
2018-07-30T12:17:15.714Z,36.30
2018-07-30T12:19:43.071Z,36.50
2018-07-30T12:22:10.438Z,36.50
2018-07-30T12:24:37.802Z,36.40
2018-07-30T12:27:05.239Z,36.60
2018-07-30T12:29:32.615Z,36.90
2018-07-30T12:31:59.989Z,37.10
2018-07-30T12:34:27.345Z,36.90
2018-07-30T12:36:54.690Z,36.80
2018-07-30T12:39:22.103Z,36.70
2018-07-30T12:46:44.223Z,34.80
2018-07-30T12:49:11.576Z,34.10
2018-07-30T12:51:38.904Z,33.90
2018-07-30T12:54:06.351Z,34.00
2018-07-30T12:56:33.699Z,34.50
2018-07-30T13:01:28.503Z,35.00
2018-07-30T13:03:56.167Z,35.20
2018-07-30T13:06:23.356Z,35.40
2018-07-30T13:08:50.511Z,35.60
2018-07-30T13:11:17.655Z,35.30
2018-07-30T13:13:44.861Z,35.20
2018-07-30T13:18:39.372Z,35.60
2018-07-30T13:21:06.683Z,35.80
2018-07-30T13:23:33.728Z,35.40
2018-07-30T13:26:00.967Z,35.20
2018-07-30T13:28:28.132Z,34.80
2018-07-30T13:30:55.371Z,34.60
2018-07-30T13:33:22.530Z,34.40
2018-07-30T13:35:49.675Z,34.10
2018-07-30T13:38:16.831Z,34.30
2018-07-30T13:40:44.011Z,34.70
2018-07-30T13:45:38.390Z,35.50
2018-07-30T13:48:05.576Z,36.00
2018-07-30T13:50:32.823Z,36.30
2018-07-30T13:52:59.983Z,36.20
2018-07-30T13:55:27.216Z,36.00
2018-07-30T14:00:21.703Z,35.70
2018-07-30T14:02:48.856Z,35.70
2018-07-30T14:05:16.037Z,35.30
2018-07-30T14:07:43.268Z,34.90
2018-07-30T14:10:10.452Z,34.40
2018-07-30T14:12:37.813Z,34.10
2018-07-30T14:15:05.322Z,33.90
2018-07-30T14:17:33.312Z,34.20
2018-07-30T14:20:00.585Z,34.30
2018-07-30T14:24:54.935Z,34.30
2018-07-30T14:27:22.167Z,34.30
2018-07-30T14:29:50.421Z,34.10
2018-07-30T14:34:44.847Z,34.10
2018-07-30T14:37:12.023Z,34.30
2018-07-30T14:39:39.251Z,34.30
2018-07-30T14:42:06.427Z,34.30
2018-07-30T14:44:33.620Z,33.90
2018-07-30T14:47:00.803Z,33.80
2018-07-30T14:49:28.026Z,33.80
2018-07-30T14:51:55.207Z,34.00
2018-07-30T14:54:22.485Z,33.70
2018-07-30T14:56:49.647Z,33.70
2018-07-30T14:59:16.896Z,33.70
2018-07-30T15:01:44.015Z,34.10
2018-07-30T15:04:11.210Z,34.50
2018-07-30T15:06:38.435Z,34.80
2018-07-30T15:09:08.176Z,35.20
2018-07-30T15:11:35.710Z,35.40
2018-07-30T15:14:02.900Z,35.30
2018-07-30T15:16:30.057Z,35.10
2018-07-30T15:18:57.220Z,35.20
2018-07-30T15:21:24.419Z,35.30
2018-07-30T15:23:51.571Z,35.40
2018-07-30T15:26:18.764Z,35.60
2018-07-30T15:28:46.041Z,35.70
2018-07-30T15:31:13.236Z,35.80
2018-07-30T15:33:40.411Z,35.90
2018-07-30T15:38:34.761Z,34.80
2018-07-30T15:41:01.911Z,34.40
2018-07-30T15:45:56.267Z,33.70
2018-07-30T15:48:23.463Z,33.50
2018-07-30T15:50:50.684Z,33.40
2018-07-30T15:53:17.841Z,33.50
2018-07-30T15:55:45.011Z,33.70
2018-07-30T15:58:12.190Z,33.60
2018-07-30T16:00:39.431Z,33.60
2018-07-30T16:03:06.747Z,33.60
2018-07-30T16:05:34.009Z,33.50
2018-07-30T16:08:01.167Z,33.50
2018-07-30T16:10:28.547Z,33.50
2018-07-30T16:12:55.896Z,33.40
2018-07-30T16:15:23.235Z,33.30
2018-07-30T16:17:50.715Z,33.30
2018-07-30T16:22:45.498Z,33.10
2018-07-30T16:25:12.892Z,33.10
2018-07-30T16:27:40.319Z,33.40
2018-07-30T16:30:08.287Z,33.60
2018-07-30T16:32:35.733Z,33.70
2018-07-30T16:35:03.311Z,33.50
2018-07-30T16:37:30.680Z,33.60
2018-07-30T16:39:58.047Z,33.40
2018-07-30T16:42:25.457Z,33.30
2018-07-30T16:47:20.320Z,33.20
2018-07-30T16:49:47.680Z,33.30
2018-07-30T16:52:15.057Z,33.20
2018-07-30T16:57:09.818Z,33.00
2018-07-30T16:59:37.163Z,33.00
2018-07-30T17:02:04.587Z,33.00
2018-07-30T17:04:32.674Z,33.10
2018-07-30T17:07:00.235Z,33.20
2018-07-30T17:09:27.609Z,33.30
2018-07-30T17:11:54.981Z,33.30
2018-07-30T17:14:22.320Z,33.20
2018-07-30T17:16:49.764Z,33.20
2018-07-30T17:21:44.643Z,33.50
2018-07-30T17:24:11.973Z,33.30
2018-07-30T17:26:39.329Z,33.30
2018-07-30T17:29:06.699Z,33.40
2018-07-30T17:31:34.068Z,33.50
2018-07-30T17:34:01.636Z,33.60
2018-07-30T17:38:56.397Z,33.50
2018-07-30T17:41:23.783Z,33.50
2018-07-30T17:43:51.198Z,33.20
2018-07-30T17:46:18.581Z,33.30
2018-07-30T17:48:45.948Z,33.30
2018-07-30T17:51:13.367Z,33.30
2018-07-30T17:53:40.759Z,33.30
2018-07-30T17:56:08.144Z,33.10
2018-07-30T17:58:35.569Z,33.10
2018-07-30T18:01:03.005Z,33.10
2018-07-30T18:03:30.472Z,33.10
2018-07-30T18:05:57.908Z,33.10
2018-07-30T18:08:25.253Z,33.10
2018-07-30T18:10:52.660Z,33.10
2018-07-30T18:13:20.024Z,33.10
2018-07-30T18:15:47.367Z,33.10
2018-07-30T18:18:14.716Z,33.10
2018-07-30T18:20:42.080Z,33.00
2018-07-30T18:23:09.607Z,33.00
2018-07-30T18:25:36.978Z,32.90
2018-07-30T18:28:04.366Z,32.80
2018-07-30T18:30:31.708Z,32.60
2018-07-30T18:32:59.075Z,32.60
2018-07-30T18:37:53.904Z,32.40
2018-07-30T18:42:48.704Z,32.20
2018-07-30T18:47:43.439Z,31.90
2018-07-30T18:50:10.784Z,31.80
2018-07-30T18:52:38.191Z,31.70
2018-07-30T18:55:05.815Z,31.60
2018-07-30T18:57:33.183Z,31.50
2018-07-30T19:00:00.527Z,31.40
2018-07-30T19:02:27.859Z,31.30
2018-07-30T19:04:55.253Z,31.20
2018-07-30T19:07:22.717Z,31.00
2018-07-30T19:09:50.071Z,30.90
2018-07-30T19:12:17.427Z,30.80
2018-07-30T19:14:44.776Z,30.70
2018-07-30T19:19:39.527Z,30.40
2018-07-30T19:22:06.864Z,30.30
2018-07-30T19:24:34.241Z,30.20
2018-07-30T19:27:01.609Z,30.10
2018-07-30T19:29:28.963Z,30.00
2018-07-30T19:31:56.330Z,29.90
2018-07-30T19:34:23.697Z,29.70
2018-07-30T19:36:51.140Z,29.60
2018-07-30T19:39:18.661Z,29.50
2018-07-30T19:41:46.025Z,29.40
2018-07-30T19:44:13.425Z,29.30
2018-07-30T19:49:08.111Z,29.10
2018-07-30T19:51:35.789Z,29.10
2018-07-30T19:54:03.156Z,28.90
2018-07-30T19:56:30.484Z,28.90
2018-07-30T19:58:58.070Z,28.90
2018-07-30T20:01:25.351Z,28.80
2018-07-30T20:06:20.989Z,28.70
2018-07-30T20:08:48.423Z,28.70
2018-07-30T20:11:15.878Z,28.60
2018-07-30T20:13:43.263Z,28.50
2018-07-30T20:16:10.610Z,28.50
2018-07-30T20:18:37.996Z,28.40
2018-07-30T20:21:05.456Z,28.40
2018-07-30T20:23:32.851Z,28.30
2018-07-30T20:26:00.236Z,28.30
2018-07-30T20:28:28.088Z,28.30
2018-07-30T20:30:55.592Z,28.20
2018-07-30T20:33:22.927Z,28.20
2018-07-30T20:35:50.311Z,28.20
2018-07-30T20:38:17.704Z,28.20
2018-07-30T20:40:45.092Z,28.10
2018-07-30T20:43:12.480Z,28.10
2018-07-30T20:45:39.876Z,28.10
2018-07-30T20:48:07.289Z,28.00
2018-07-30T20:50:34.676Z,28.00
2018-07-30T20:53:02.055Z,27.90
2018-07-30T20:55:29.408Z,27.90
2018-07-30T20:57:56.883Z,27.80
2018-07-30T21:00:24.299Z,27.70
2018-07-30T21:02:51.812Z,27.60
2018-07-30T21:05:19.174Z,27.50
2018-07-30T21:07:46.543Z,27.50
2018-07-30T21:10:14.000Z,27.40
2018-07-30T21:12:41.456Z,27.40
2018-07-30T21:15:08.815Z,27.40
2018-07-30T21:17:36.229Z,27.40
2018-07-30T21:24:58.853Z,27.20
2018-07-30T21:27:26.213Z,27.20
2018-07-30T21:32:21.015Z,27.10
2018-07-30T21:34:48.412Z,27.00
2018-07-30T21:39:43.131Z,27.00
2018-07-30T21:42:10.513Z,26.90
2018-07-30T21:44:37.869Z,26.90
2018-07-30T21:49:32.623Z,26.80
2018-07-30T21:51:59.962Z,26.80
2018-07-30T21:54:27.304Z,26.70
2018-07-30T21:56:54.689Z,26.60
2018-07-30T21:59:22.693Z,26.60
2018-07-30T22:01:50.093Z,26.60
2018-07-30T22:04:17.456Z,26.50
2018-07-30T22:06:44.912Z,26.50
2018-07-30T22:11:39.691Z,26.40
2018-07-30T22:14:07.089Z,26.40
2018-07-30T22:16:34.551Z,26.40
2018-07-30T22:19:01.936Z,26.30
2018-07-30T22:21:29.353Z,26.30
2018-07-30T22:23:56.711Z,26.20
2018-07-30T22:26:24.139Z,26.20
2018-07-30T22:28:51.515Z,26.20
2018-07-30T22:31:18.884Z,26.30
2018-07-30T22:36:13.670Z,26.30
2018-07-30T22:38:41.089Z,26.40
2018-07-30T22:41:08.559Z,26.40
2018-07-30T22:43:35.958Z,26.50
2018-07-30T22:46:03.531Z,26.60
2018-07-30T22:48:30.891Z,26.70
2018-07-30T22:50:58.229Z,26.80
2018-07-30T22:53:25.627Z,26.90
2018-07-30T22:55:52.971Z,26.90
2018-07-30T23:00:47.807Z,26.90
2018-07-30T23:03:15.244Z,26.90
2018-07-30T23:05:42.619Z,26.80
2018-07-30T23:08:09.980Z,26.70
2018-07-30T23:10:37.408Z,26.60
2018-07-30T23:13:04.940Z,26.50
2018-07-30T23:15:32.276Z,26.40
2018-07-30T23:17:59.631Z,26.30
2018-07-30T23:20:27.007Z,26.20
2018-07-30T23:22:54.346Z,26.20
2018-07-30T23:25:21.755Z,26.10
2018-07-30T23:30:16.587Z,26.00
2018-07-30T23:32:44.019Z,26.00
2018-07-30T23:37:38.756Z,25.80
2018-07-30T23:40:06.313Z,25.80
2018-07-30T23:42:33.679Z,25.70
2018-07-30T23:45:01.085Z,25.60
2018-07-30T23:47:28.536Z,25.50
2018-07-30T23:49:55.880Z,25.50
2018-07-30T23:52:23.224Z,25.30
2018-07-30T23:54:50.591Z,25.30
2018-07-30T23:57:17.917Z,25.20
2018-07-30T23:59:45.280Z,25.20
